Latest Weather Observations for Canterbury

IDN60801

Issued at 6:03 am EST Thursday 2 July 2015 (issued every 30 minutes, with the page automatically refreshed every 10 minutes)

About weather observations | Map of weather stations | Latest weather observations for NSW | Other Formats
Station Details ID: 066194 Name: CANTERBURY RACECOURSE AWS Lat: -33.91 Lon: 151.11 Height: 3.0 m
Data from the previous 72 hours. | See also: Recent months at Canterbury
Date/Time
EST
Temp
°C
App
Temp
°C
Dew
Point
Rel
Hum
%
Delta-T
°C
Wind Press
QNH
hPa
Press
MSL
hPa
Rain
since 9 am
mm
Dir
 
Spd
km/h
Gust
km/h
Spd
kts
Gust
kts
02/06:00am 3.4 0.3 1.4 87 0.8 W 7 9 4 5 - - 0.2
02/05:30am 2.7 0.1 1.1 89 0.6 WNW 4 7 2 4 - - 0.2
02/05:00am 2.9 0.0 1.6 91 0.5 WNW 6 7 3 4 - - 0.2
02/04:30am 2.6 -0.5 1.3 91 0.5 WSW 7 9 4 5 - - 0.2
02/04:00am 2.5 -0.1 0.7 88 0.7 NW 4 7 2 4 - - 0.2
02/03:30am 3.5 1.7 1.4 86 0.8 CALM 0 6 0 3 - - 0.2
02/03:00am 4.5 1.7 1.9 83 1.0 NW 6 7 3 4 - - 0.2
02/02:30am 4.6 1.5 1.6 81 1.2 WNW 7 11 4 6 - - 0.2
02/02:00am 5.2 2.2 2.0 80 1.3 NW 7 9 4 5 - - 0.2
02/01:30am 5.0 2.0 2.0 81 1.2 WNW 7 9 4 5 - - 0.2
02/01:00am 5.3 2.4 2.7 83 1.1 WNW 7 9 4 5 - - 0.2
02/12:30am 4.7 1.9 2.2 84 1.0 W 6 7 3 4 - - 0.2
02/12:00am 5.1 3.5 2.3 82 1.1 CALM 0 0 0 0 - - 0.2
 
Date/Time
EST
Temp
°C
App
Temp
°C
Dew
Point
Rel
Hum
%
Delta-T
°C
Wind Press
QNH
hPa
Press
MSL
hPa
Rain
since 9 am
mm
Dir
 
Spd
km/h
Gust
km/h
Spd
kts
Gust
kts
01/11:30pm 6.5 3.9 3.1 79 1.4 W 6 9 3 5 - - 0.2
01/11:00pm 7.5 4.5 3.9 78 1.5 WSW 9 15 5 8 - - 0.2
01/10:30pm 7.7 4.9 5.0 83 1.2 WSW 9 15 5 8 - - 0.2
01/10:00pm 5.6 4.5 5.0 96 0.3 CALM 0 0 0 0 - - 0.2
01/09:36pm 6.1 5.1 5.5 96 0.3 CALM 0 0 0 0 - - 0.2
01/09:30pm 6.2 5.2 5.6 96 0.3 CALM 0 0 0 0 - - 0.2
01/09:20pm 5.8 4.7 5.1 95 0.3 CALM 0 0 0 0 - - 0.2
01/09:00pm 6.5 5.5 5.8 95 0.3 CALM 0 0 0 0 - - 0.2
01/08:30pm 6.4 5.4 5.5 94 0.4 CALM 0 0 0 0 - - 0.2
01/08:00pm 6.2 5.0 4.8 91 0.6 CALM 0 0 0 0 - - 0.2
01/07:30pm 7.2 6.2 5.8 91 0.6 CALM 0 0 0 0 - - 0.2
01/07:00pm 7.5 6.5 5.5 87 0.9 CALM 0 0 0 0 - - 0.2
01/06:30pm 8.4 7.5 6.2 86 1.0 CALM 0 0 0 0 - - 0.2
01/06:00pm 8.9 8.0 6.0 82 1.3 CALM 0 0 0 0 - - 0.2
01/05:30pm 9.9 8.8 5.3 73 2.1 CALM 0 0 0 0 - - 0.2
01/05:00pm 12.0 9.9 5.6 65 3.0 ESE 6 7 3 4 - - 0.2
01/04:30pm 13.5 11.0 4.6 55 4.1 S 7 11 4 6 - - 0.2
01/04:00pm 15.2 12.1 1.4 39 6.0 WSW 7 11 4 6 - - 0.2
01/03:30pm 15.1 11.4 2.6 43 5.6 WSW 11 15 6 8 - - 0.2
01/03:00pm 15.6 12.4 3.1 43 5.7 WSW 9 15 5 8 - - 0.2
01/02:30pm 15.5 12.2 2.7 42 5.7 W 9 15 5 8 - - 0.2
01/02:00pm 15.2 11.9 2.7 43 5.6 WSW 9 15 5 8 - - 0.2
01/01:30pm 15.3 12.4 2.8 43 5.6 W 7 15 4 8 - - 0.2
01/01:00pm 15.5 12.3 3.3 44 5.5 SW 9 15 5 8 - - 0.2
01/12:30pm 14.7 11.5 2.9 45 5.3 WSW 9 17 5 9 - - 0.0
01/12:00pm 14.0 10.2 3.8 50 4.6 W 13 20 7 11 - - 0.0
01/11:30am 13.3 9.6 4.5 55 4.0 W 13 22 7 12 - - 0.0
01/11:00am 12.6 8.8 3.8 55 3.9 W 13 20 7 11 - - 0.0
01/10:30am 11.7 7.8 3.5 57 3.6 WSW 13 20 7 11 - - 0.0
01/10:00am 11.3 8.1 5.0 65 2.9 WSW 11 19 6 10 - - 0.0
01/09:30am 10.5 7.6 4.6 67 2.6 WSW 9 17 5 9 - - 0.0
01/09:00am 11.0 8.1 6.4 73 2.2 SW 11 17 6 9 - - 2.2
01/08:30am 10.6 7.7 8.2 85 1.2 W 13 19 7 10 - - 2.2
01/08:00am 9.7 7.7 8.8 94 0.4 W 9 13 5 7 - - 2.2
01/07:30am 9.4 8.0 8.9 97 0.2 WSW 6 7 3 4 - - 2.2
01/07:00am 9.3 9.0 8.5 95 0.4 CALM 0 0 0 0 - - 2.2
01/06:30am 9.7 9.4 8.8 94 0.4 CALM 0 0 0 0 - - 2.2
01/06:00am 9.8 8.4 9.0 95 0.4 WSW 6 9 3 5 - - 2.2
01/05:30am 9.9 8.9 8.8 93 0.5 WSW 4 7 2 4 - - 1.8
01/05:24am 9.9 9.3 8.8 93 0.5 WSW 2 6 1 3 - - 1.8
01/05:00am 10.2 9.5 8.5 89 0.8 WSW 2 9 1 5 - - 1.2
01/04:32am 10.2 9.1 8.3 88 0.9 WNW 4 6 2 3 - - 0.6
01/04:30am 10.2 9.4 8.3 88 0.9 WNW 2 6 1 3 - - 0.6
01/04:00am 10.0 9.6 8.3 89 0.8 CALM 0 0 0 0 - - 0.0
01/03:30am 9.4 8.8 7.5 88 0.9 CALM 0 0 0 0 - - 0.0
01/03:00am 9.4 8.5 7.7 89 0.8 E 2 7 1 4 - - 0.0
01/02:30am 9.4 8.9 7.7 89 0.8 CALM 0 0 0 0 - - 0.0
01/02:00am 9.9 9.4 7.8 87 1.0 CALM 0 0 0 0 - - 0.0
01/01:30am 8.8 8.2 7.4 91 0.7 CALM 0 0 0 0 - - 0.0
01/01:00am 8.7 8.1 7.2 90 0.7 CALM 0 0 0 0 - - 0.0
01/12:30am 8.5 7.7 6.6 88 0.9 CALM 0 0 0 0 - - 0.0
01/12:00am 9.5 8.5 7.4 87 1.0 SW 2 6 1 3 - - 0.0
 
Date/Time
EST
Temp
°C
App
Temp
°C
Dew
Point
Rel
Hum
%
Delta-T
°C
Wind Press
QNH
hPa
Press
MSL
hPa
Rain
since 9 am
mm
Dir
 
Spd
km/h
Gust
km/h
Spd
kts
Gust
kts
30/11:30pm 10.5 9.5 8.8 89 0.8 N 4 7 2 4 - - 0.0
30/11:00pm 11.0 10.8 9.1 88 0.9 CALM 0 0 0 0 - - 0.0
30/10:30pm 11.2 10.8 9.8 91 0.7 N 2 6 1 3 - - 0.0
30/10:00pm 10.7 10.7 9.8 94 0.5 CALM 0 0 0 0 - - 0.0
30/09:30pm 11.1 11.2 10.2 94 0.5 CALM 0 0 0 0 - - 0.0
30/09:00pm 11.3 11.4 10.2 93 0.6 CALM 0 0 0 0 - - 0.0
30/08:30pm 11.7 11.8 10.3 91 0.7 CALM 0 0 0 0 - - 0.0
30/08:00pm 12.2 12.4 10.6 90 0.8 CALM 0 0 0 0 - - 0.0
30/07:30pm 12.5 12.7 10.4 87 1.1 CALM 0 0 0 0 - - 0.0
30/07:00pm 12.9 13.1 10.4 85 1.3 CALM 0 0 0 0 - - 0.0
30/06:30pm 13.8 12.7 10.8 82 1.6 N 7 9 4 5 - - 0.0
30/06:00pm 13.3 12.4 10.5 83 1.5 N 6 7 3 4 - - 0.0
30/05:30pm 13.1 13.1 9.7 80 1.7 CALM 0 0 0 0 - - 0.0
30/05:00pm 14.7 13.9 9.7 72 2.6 N 4 7 2 4 - - 0.0
30/04:30pm 15.6 14.1 9.1 65 3.3 N 7 9 4 5 - - 0.0
30/04:00pm 16.7 15.1 8.7 59 4.1 N 7 7 4 4 - - 0.0
30/03:30pm 18.1 16.7 8.7 54 4.9 N 6 9 3 5 - - 0.0
30/03:00pm 18.6 17.4 8.0 50 5.4 N 4 7 2 4 - - 0.0
30/02:30pm 17.5 15.5 7.0 50 5.2 N 7 11 4 6 - - 0.0
30/02:00pm 17.7 16.6 8.3 54 4.8 NNW 4 9 2 5 - - 0.0
30/01:30pm 16.6 14.8 7.8 56 4.4 W 7 11 4 6 - - 0.0
30/01:00pm 15.7 14.0 8.2 61 3.8 W 7 9 4 5 - - 0.0
30/12:30pm 14.6 12.4 7.9 64 3.3 WNW 9 13 5 7 - - 0.0
30/12:00pm 13.3 11.2 8.2 71 2.5 NW 9 13 5 7 - - 0.0
30/11:30am 12.6 10.9 8.5 76 2.0 NW 7 11 4 6 - - 0.0
30/11:00am 11.5 9.7 8.0 79 1.7 W 7 11 4 6 - - 0.0
30/10:30am 11.2 9.3 8.9 86 1.1 NNW 9 13 5 7 - - 0.0
30/10:00am 10.1 8.0 8.4 89 0.8 NW 9 13 5 7 - - 0.0
30/09:30am 9.4 7.4 8.6 95 0.4 NW 9 13 5 7 - - 0.0
30/09:00am 9.0 7.1 8.9 99 0.0 NW 9 13 5 7 - - 0.2
30/08:38am 8.6 6.9 8.5 99 0.0 NW 7 11 4 6 - - 0.2
30/08:30am 8.4 6.9 8.3 99 0.0 NW 6 9 3 5 - - 0.2
30/08:00am 7.0 5.0 6.9 99 0.0 N 7 11 4 6 - - 0.2
30/07:30am 5.7 4.7 5.6 99 0.0 CALM 0 0 0 0 - - 0.2
30/07:00am 5.6 4.6 5.5 99 0.0 CALM 0 0 0 0 - - 0.2
30/06:30am 5.3 4.2 5.2 99 0.0 CALM 0 0 0 0 - - 0.2
30/06:00am 5.2 4.1 5.1 99 0.0 CALM 0 6 0 3 - - 0.2
30/05:30am 5.9 4.9 5.8 99 0.0 CALM 0 0 0 0 - - 0.2
30/05:00am 5.4 3.6 5.3 99 0.0 NE 4 9 2 5 - - 0.2
30/04:30am 4.8 3.6 4.7 99 0.0 CALM 0 0 0 0 - - 0.2
30/04:00am 5.4 4.3 5.3 99 0.0 CALM 0 0 0 0 - - 0.2
30/03:30am 5.7 4.7 5.6 99 0.0 CALM 0 0 0 0 - - 0.2
30/03:00am 5.4 4.3 5.3 99 0.0 CALM 0 0 0 0 - - 0.2
30/02:30am 5.7 4.7 5.6 99 0.0 CALM 0 0 0 0 - - 0.2
30/02:00am 5.6 4.6 5.5 99 0.0 CALM 0 0 0 0 - - 0.2
30/01:30am 5.9 4.9 5.6 98 0.1 CALM 0 0 0 0 - - 0.2
30/01:00am 5.7 4.7 5.4 98 0.1 CALM 0 0 0 0 - - 0.2
30/12:30am 6.8 6.0 6.5 98 0.1 CALM 0 0 0 0 - - 0.2
30/12:00am 6.7 5.9 6.4 98 0.1 CALM 0 0 0 0 - - 0.2
 
Date/Time
EST
Temp
°C
App
Temp
°C
Dew
Point
Rel
Hum
%
Delta-T
°C
Wind Press
QNH
hPa
Press
MSL
hPa
Rain
since 9 am
mm
Dir
 
Spd
km/h
Gust
km/h
Spd
kts
Gust
kts
29/11:30pm 6.5 5.6 6.1 97 0.2 CALM 0 0 0 0 - - 0.2
29/11:00pm 7.0 6.2 6.6 97 0.2 CALM 0 0 0 0 - - 0.2
29/10:56pm 7.1 6.4 6.8 98 0.1 CALM 0 0 0 0 - - 0.2
29/10:40pm 7.3 6.6 6.9 97 0.2 CALM 0 0 0 0 - - 0.2
29/10:30pm 7.2 6.1 6.8 97 0.2 NE 2 7 1 4 - - 0.2
29/10:00pm 7.0 6.2 6.4 96 0.3 CALM 0 0 0 0 - - 0.2
29/09:37pm 7.7 7.1 7.3 97 0.2 CALM 0 0 0 0 - - 0.2
29/09:30pm 8.0 7.4 7.6 97 0.2 CALM 0 0 0 0 - - 0.2
29/09:06pm 7.8 7.2 7.2 96 0.3 CALM 0 0 0 0 - - 0.2
29/09:00pm 8.1 7.5 7.5 96 0.3 CALM 0 0 0 0 - - 0.2
29/08:30pm 7.9 7.2 7.0 94 0.4 CALM 0 0 0 0 - - 0.2
29/08:27pm 8.1 7.5 7.2 94 0.4 CALM 0 0 0 0 - - 0.2
29/08:00pm 8.5 7.9 7.4 93 0.5 CALM 0 0 0 0 - - 0.2
29/07:30pm 9.1 8.6 7.9 92 0.6 CALM 0 0 0 0 - - 0.2
29/07:00pm 9.5 9.0 7.9 90 0.8 CALM 0 0 0 0 - - 0.2
29/06:30pm 10.1 9.6 7.9 86 1.1 CALM 0 0 0 0 - - 0.2
29/06:00pm 11.3 10.9 8.2 81 1.5 CALM 0 0 0 0 - - 0.2
29/05:30pm 12.6 12.1 7.7 72 2.4 CALM 0 0 0 0 - - 0.2
29/05:00pm 14.7 13.1 8.0 64 3.3 NE 6 9 3 5 - - 0.2
29/04:30pm 15.7 13.5 8.0 60 3.9 NE 9 13 5 7 - - 0.2
29/04:00pm 16.1 14.0 8.3 60 4.0 NE 9 15 5 8 - - 0.2
29/03:30pm 17.2 14.7 8.1 55 4.6 NE 11 15 6 8 - - 0.2
29/03:00pm 17.7 15.8 7.7 52 5.1 ENE 7 11 4 6 - - 0.2
29/02:30pm 17.8 15.7 8.1 53 5.0 NE 9 15 5 8 - - 0.2
29/02:00pm 18.2 15.5 7.3 49 5.5 NE 11 19 6 10 - - 0.2
29/01:30pm 17.5 15.7 7.8 53 4.9 E 7 13 4 7 - - 0.2
29/01:00pm 17.2 15.4 7.0 51 5.1 ESE 6 11 3 6 - - 0.2
29/12:30pm 17.6 16.3 7.6 52 5.0 WNW 4 9 2 5 - - 0.2
29/12:00pm 16.6 15.1 7.0 53 4.8 W 4 9 2 5 - - 0.2
29/11:30am 15.8 14.1 7.6 58 4.1 WSW 6 9 3 5 - - 0.2
29/11:00am 14.2 12.5 7.7 65 3.2 WNW 6 7 3 4 - - 0.2
29/10:30am 13.3 12.0 7.5 68 2.8 WSW 4 35 2 19 - - 0.0
29/10:00am 12.4 10.6 7.9 74 2.2 NW 7 13 4 7 - - 0.0
29/09:30am 10.9 8.7 8.0 82 1.4 WNW 9 11 5 6 - - 0.0
29/09:00am 9.5 7.5 7.3 86 1.0 NW 7 11 4 6 - - 0.0
29/08:30am 8.8 6.8 7.1 89 0.8 NW 7 11 4 6 - - 0.0
29/08:00am 8.1 6.3 7.2 94 0.4 NW 6 9 3 5 - - 0.0
29/07:30am 7.5 5.6 6.8 95 0.3 NNW 6 6 3 3 - - 0.0
29/07:00am 7.4 5.5 6.7 95 0.3 NNW 6 6 3 3 - - 0.0
29/06:30am 7.6 6.1 7.0 96 0.3 NNW 4 7 2 4 - - 0.0

Other Formats:

Comma delimited format used in spreadsheet applications
http://www.bom.gov.au/fwo/IDN60801/IDN60801.94766.axf

JavaScript Object Notation format (JSON) in row-major order
http://www.bom.gov.au/fwo/IDN60801/IDN60801.94766.json